createdAt,value
2018-04-18T04:02:53.443Z,16.70
2018-04-18T04:05:22.191Z,11.32
2018-04-18T04:07:50.916Z,12.02
2018-04-18T04:10:19.437Z,13.60
2018-04-18T04:12:48.172Z,17.77
2018-04-18T04:15:17.652Z,14.85
2018-04-18T04:17:57.687Z,12.55
2018-04-18T04:20:37.564Z,16.05
2018-04-18T04:23:17.363Z,18.20
2018-04-18T04:25:46.078Z,14.48
2018-04-18T04:28:14.788Z,17.58
2018-04-18T04:30:44.934Z,15.73
2018-04-18T04:33:14.451Z,12.60
2018-04-18T04:35:43.194Z,21.40
2018-04-18T04:38:11.932Z,13.93
2018-04-18T04:40:40.759Z,14.27
2018-04-18T04:43:09.563Z,12.65
2018-04-18T04:45:38.393Z,13.23
2018-04-18T04:48:07.115Z,16.20
2018-04-18T04:50:35.812Z,14.52
2018-04-18T04:53:04.528Z,17.15
2018-04-18T04:55:33.343Z,17.87
2018-04-18T04:58:02.591Z,16.60
2018-04-18T05:00:31.082Z,22.30
2018-04-18T05:02:59.827Z,15.38
2018-04-18T05:05:28.545Z,17.90
2018-04-18T05:07:57.273Z,21.70
2018-04-18T05:10:26.076Z,20.58
2018-04-18T05:12:55.043Z,13.82
2018-04-18T05:15:23.766Z,16.75
2018-04-18T05:17:53.256Z,18.33
2018-04-18T05:20:22.747Z,17.02
2018-04-18T05:22:51.555Z,17.27
2018-04-18T05:25:21.072Z,15.82
2018-04-18T05:27:49.807Z,14.68
2018-04-18T05:30:18.036Z,11.43
2018-04-18T05:32:46.483Z,10.70
2018-04-18T05:35:15.804Z,17.40
2018-04-18T05:37:44.247Z,12.40
2018-04-18T05:40:13.247Z,9.20
2018-04-18T05:42:41.701Z,9.50
2018-04-18T05:45:10.229Z,9.60
2018-04-18T05:47:38.811Z,11.07
2018-04-18T05:50:07.272Z,8.90
2018-04-18T05:52:35.736Z,8.33
2018-04-18T05:55:03.896Z,8.03
2018-04-18T05:57:33.294Z,8.27
2018-04-18T06:00:02.464Z,6.63
2018-04-18T06:02:30.912Z,6.80
2018-04-18T06:04:59.354Z,9.63
2018-04-18T06:07:27.833Z,23.00
2018-04-18T06:09:57.047Z,12.33
2018-04-18T06:12:25.487Z,6.67
2018-04-18T06:14:54.684Z,7.73
2018-04-18T06:17:23.138Z,11.73
2018-04-18T06:19:51.419Z,7.93
2018-04-18T06:22:19.858Z,11.27
2018-04-18T06:24:48.304Z,7.27
2018-04-18T06:27:17.550Z,10.00
2018-04-18T06:29:46.183Z,7.90
2018-04-18T06:32:15.384Z,8.20
2018-04-18T06:34:44.596Z,8.57
2018-04-18T06:37:13.050Z,6.47
2018-04-18T06:39:41.550Z,8.13
2018-04-18T06:42:10.018Z,7.40
2018-04-18T06:44:39.238Z,10.23
2018-04-18T06:47:07.743Z,7.23
2018-04-18T06:49:36.187Z,8.07
2018-04-18T06:52:04.683Z,6.47
2018-04-18T06:54:33.163Z,6.60
2018-04-18T06:57:01.631Z,6.53
2018-04-18T06:59:30.987Z,6.50
2018-04-18T07:01:59.439Z,6.70
2018-04-18T07:04:27.911Z,7.00
2018-04-18T07:06:56.444Z,6.10
2018-04-18T07:09:24.873Z,6.00
2018-04-18T07:11:54.112Z,5.83
2018-04-18T07:14:22.606Z,8.07
2018-04-18T07:16:51.059Z,9.53
2018-04-18T07:19:19.524Z,9.73
2018-04-18T07:21:48.019Z,8.00
2018-04-18T07:24:16.491Z,5.70
2018-04-18T07:26:44.975Z,9.67
2018-04-18T07:29:14.226Z,7.40
2018-04-18T07:31:42.693Z,7.43
2018-04-18T07:34:11.179Z,5.77
2018-04-18T07:36:39.634Z,8.30
2018-04-18T07:39:08.091Z,5.40
2018-04-18T07:41:37.347Z,5.70
2018-04-18T07:44:05.799Z,8.10
2018-04-18T07:46:34.303Z,6.97
2018-04-18T07:49:03.727Z,8.70
2018-04-18T07:51:32.188Z,6.33
2018-04-18T07:54:00.724Z,9.20
2018-04-18T07:56:29.948Z,8.30
2018-04-18T07:58:58.417Z,7.30
2018-04-18T08:01:26.891Z,11.20
2018-04-18T08:03:55.356Z,7.83
2018-04-18T08:06:24.575Z,8.63
2018-04-18T08:08:53.070Z,8.83
2018-04-18T08:11:21.559Z,8.27
2018-04-18T08:13:50.025Z,6.23
2018-04-18T08:16:18.264Z,6.77
2018-04-18T08:18:46.767Z,12.80
2018-04-18T08:21:16.019Z,11.17
2018-04-18T08:23:44.559Z,8.43
2018-04-18T08:26:13.207Z,10.93
2018-04-18T08:28:41.685Z,9.03
2018-04-18T08:31:10.150Z,8.90
2018-04-18T08:33:38.646Z,8.97
2018-04-18T08:36:07.148Z,8.83
2018-04-18T08:38:35.823Z,11.43
2018-04-18T08:41:04.325Z,7.90
2018-04-18T08:43:32.788Z,7.50
2018-04-18T08:46:01.280Z,10.90
2018-04-18T08:48:29.789Z,7.23
2018-04-18T08:50:59.033Z,10.57
2018-04-18T08:53:27.277Z,10.40
2018-04-18T08:55:55.773Z,7.53
2018-04-18T08:58:24.269Z,7.07
2018-04-18T09:00:52.752Z,6.77
2018-04-18T09:03:21.238Z,6.13
2018-04-18T09:05:49.849Z,5.93
2018-04-18T09:08:18.320Z,6.67
2018-04-18T09:10:46.851Z,7.87
2018-04-18T09:13:15.910Z,5.40
2018-04-18T09:15:44.439Z,5.70
2018-04-18T09:18:13.072Z,8.77
2018-04-18T09:20:41.626Z,6.97
2018-04-18T09:23:10.103Z,11.23
2018-04-18T09:25:38.573Z,5.47
2018-04-18T09:28:07.853Z,7.53
2018-04-18T09:30:37.116Z,5.27
2018-04-18T09:33:05.587Z,8.83
2018-04-18T09:35:34.069Z,4.90
2018-04-18T09:38:02.329Z,7.83
2018-04-18T09:40:30.855Z,6.70
2018-04-18T09:42:59.327Z,6.50
2018-04-18T09:45:27.803Z,8.40
2018-04-18T09:47:56.304Z,8.87
2018-04-18T09:50:24.843Z,7.07
2018-04-18T09:52:53.325Z,10.10
2018-04-18T09:55:21.848Z,6.43
2018-04-18T09:57:50.353Z,5.67
2018-04-18T10:00:19.368Z,5.13
2018-04-18T10:02:53.159Z,6.90
2018-04-18T10:05:22.465Z,7.10
2018-04-18T10:07:51.721Z,5.83
2018-04-18T10:10:20.215Z,6.30
2018-04-18T10:12:48.863Z,7.50
2018-04-18T10:15:17.348Z,9.80
2018-04-18T10:17:45.826Z,5.87
2018-04-18T10:20:14.309Z,8.63
2018-04-18T10:22:42.563Z,8.23
2018-04-18T10:25:11.887Z,4.53
2018-04-18T10:27:40.363Z,5.43
2018-04-18T10:30:08.856Z,10.47
2018-04-18T10:32:37.343Z,5.23
2018-04-18T10:35:05.868Z,6.90
2018-04-18T10:37:34.147Z,5.77
2018-04-18T10:40:02.714Z,6.30
2018-04-18T10:42:31.217Z,6.57
2018-04-18T10:44:59.701Z,5.53
2018-04-18T10:47:28.160Z,5.10
2018-04-18T10:49:56.693Z,6.83
2018-04-18T10:52:25.937Z,6.77
2018-04-18T10:54:54.408Z,8.10
2018-04-18T10:57:22.938Z,6.73
2018-04-18T10:59:51.411Z,6.40
2018-04-18T11:02:19.879Z,5.37
2018-04-18T11:04:48.374Z,6.43
2018-04-18T11:07:16.862Z,7.57
2018-04-18T11:09:45.573Z,5.17
2018-04-18T11:12:14.835Z,7.17
2018-04-18T11:14:43.335Z,7.50
2018-04-18T11:17:11.803Z,6.37
2018-04-18T11:19:40.363Z,5.80
2018-04-18T11:22:08.850Z,5.23
2018-04-18T11:24:37.069Z,5.23
2018-04-18T11:27:05.338Z,5.43
2018-04-18T11:29:33.803Z,4.83
2018-04-18T11:32:02.030Z,5.57
2018-04-18T11:34:30.503Z,6.80
2018-04-18T11:36:59.897Z,5.77
2018-04-18T11:39:29.144Z,6.43
2018-04-18T11:41:58.492Z,7.00
2018-04-18T11:44:26.981Z,4.93
2018-04-18T11:46:56.258Z,6.83
2018-04-18T11:49:24.479Z,5.60
2018-04-18T11:51:52.999Z,4.70
2018-04-18T11:54:22.388Z,5.43
2018-04-18T11:56:50.879Z,5.13
2018-04-18T11:59:19.364Z,7.67
2018-04-18T12:01:47.854Z,5.93
2018-04-18T12:04:16.351Z,7.50
2018-04-18T12:06:44.826Z,4.80
2018-04-18T12:09:13.309Z,5.90
2018-04-18T12:11:41.804Z,8.40
2018-04-18T12:14:10.055Z,8.30
2018-04-18T12:16:38.299Z,5.83
2018-04-18T12:19:06.806Z,8.00
2018-04-18T12:21:35.298Z,7.37
2018-04-18T12:24:05.092Z,6.43
2018-04-18T12:26:33.627Z,8.27
2018-04-18T12:29:02.084Z,9.77
2018-04-18T12:31:30.559Z,7.00
2018-04-18T12:33:59.040Z,5.50
2018-04-18T12:36:27.575Z,6.40
2018-04-18T12:38:56.803Z,6.10
2018-04-18T12:41:25.272Z,7.70
2018-04-18T12:43:53.760Z,12.77
2018-04-18T12:46:22.246Z,7.17
2018-04-18T12:48:50.711Z,7.53
2018-04-18T12:51:19.936Z,7.47
2018-04-18T12:53:48.487Z,8.10
2018-04-18T12:56:16.980Z,6.37
2018-04-18T12:58:45.448Z,7.47
2018-04-18T13:01:14.704Z,10.40
2018-04-18T13:03:43.173Z,7.20
2018-04-18T13:06:11.644Z,9.07
2018-04-18T13:08:40.125Z,7.40
2018-04-18T13:11:08.568Z,7.60
2018-04-18T13:13:37.803Z,7.47
2018-04-18T13:16:06.292Z,6.83
2018-04-18T13:18:34.487Z,8.63
2018-04-18T13:21:02.972Z,9.60
2018-04-18T13:23:31.439Z,7.60
2018-04-18T13:25:59.900Z,7.43
2018-04-18T13:28:28.387Z,7.87
2018-04-18T13:30:56.840Z,8.60
2018-04-18T13:33:25.512Z,6.60
2018-04-18T13:35:53.999Z,6.23
2018-04-18T13:38:22.232Z,6.53
2018-04-18T13:40:50.701Z,7.53
2018-04-18T13:43:19.173Z,13.20
2018-04-18T13:45:47.647Z,7.47
2018-04-18T13:48:16.901Z,8.60
2018-04-18T13:50:45.379Z,7.00
2018-04-18T13:53:13.835Z,9.70
2018-04-18T13:55:42.304Z,11.17
2018-04-18T13:58:10.763Z,6.97
2018-04-18T14:00:40.008Z,7.80
2018-04-18T14:03:08.503Z,9.47
2018-04-18T14:05:36.996Z,6.07
2018-04-18T14:08:05.484Z,6.63
2018-04-18T14:10:34.023Z,8.67
2018-04-18T14:13:02.499Z,6.83
2018-04-18T14:15:30.972Z,7.50
2018-04-18T14:18:00.213Z,8.60
2018-04-18T14:20:28.700Z,8.23
2018-04-18T14:22:57.148Z,6.80
2018-04-18T14:25:25.596Z,6.60
2018-04-18T14:27:54.084Z,6.83
2018-04-18T14:30:22.549Z,6.93
2018-04-18T14:32:51.039Z,6.93
2018-04-18T14:35:19.491Z,9.40
2018-04-18T14:37:48.007Z,7.93
2018-04-18T14:40:16.649Z,9.57
2018-04-18T14:42:45.112Z,8.80
2018-04-18T14:45:13.569Z,7.30
2018-04-18T14:47:42.798Z,5.80
2018-04-18T14:50:11.239Z,8.70
2018-04-18T14:52:39.904Z,9.63
2018-04-18T14:55:08.379Z,10.10
2018-04-18T14:57:36.859Z,8.83
2018-04-18T15:00:04.675Z,6.47
2018-04-18T15:02:33.988Z,6.00
2018-04-18T15:05:02.476Z,5.83
2018-04-18T15:07:30.960Z,5.50
2018-04-18T15:09:59.420Z,5.77
2018-04-18T15:12:28.667Z,7.93
2018-04-18T15:14:57.162Z,8.20
2018-04-18T15:17:25.622Z,7.70
2018-04-18T15:19:54.088Z,6.40
2018-04-18T15:22:22.572Z,5.07
2018-04-18T15:24:51.052Z,7.73
2018-04-18T15:27:19.503Z,13.13
2018-04-18T15:29:47.979Z,5.53
2018-04-18T15:32:16.433Z,7.60
2018-04-18T15:34:44.907Z,8.37
2018-04-18T15:37:13.382Z,5.10
2018-04-18T15:39:41.831Z,5.17
2018-04-18T15:42:11.044Z,9.77
2018-04-18T15:44:39.563Z,7.13
2018-04-18T15:47:08.947Z,5.00
2018-04-18T15:49:37.419Z,7.07
2018-04-18T15:52:05.585Z,5.10
2018-04-18T15:54:34.065Z,5.03
2018-04-18T15:57:02.281Z,4.83
2018-04-18T15:59:30.786Z,3.80
2018-04-18T16:01:59.273Z,7.13
2018-04-18T16:04:27.910Z,4.90
2018-04-18T16:06:56.400Z,5.53
2018-04-18T16:09:25.681Z,5.30
2018-04-18T16:11:54.160Z,4.20
2018-04-18T16:14:22.652Z,6.57
2018-04-18T16:16:51.111Z,7.20
2018-04-18T16:19:20.351Z,7.73
2018-04-18T16:21:48.837Z,5.33
2018-04-18T16:24:17.300Z,6.60
2018-04-18T16:26:46.775Z,5.93
2018-04-18T16:29:26.501Z,14.07
2018-04-18T16:31:54.975Z,7.83
2018-04-18T16:34:23.460Z,6.77
2018-04-18T16:36:51.984Z,5.00
2018-04-18T16:39:21.212Z,8.80
2018-04-18T16:41:49.467Z,4.47
2018-04-18T16:44:18.063Z,5.43
2018-04-18T16:46:46.533Z,5.27
2018-04-18T16:49:15.012Z,4.70
2018-04-18T16:51:43.481Z,5.53
2018-04-18T16:54:11.959Z,4.67
2018-04-18T16:56:41.208Z,7.93
2018-04-18T16:59:09.681Z,4.43
2018-04-18T17:01:38.158Z,6.53
2018-04-18T17:04:06.610Z,8.47
2018-04-18T17:06:35.937Z,5.33
2018-04-18T17:09:03.884Z,5.70
2018-04-18T17:11:33.118Z,5.87
2018-04-18T17:14:01.579Z,6.10
2018-04-18T17:16:30.061Z,5.07
2018-04-18T17:18:58.510Z,8.33
2018-04-18T17:21:26.985Z,5.53
2018-04-18T17:23:55.461Z,11.33
2018-04-18T17:26:24.036Z,10.33
2018-04-18T17:28:52.711Z,10.63
2018-04-18T17:31:20.963Z,9.83
2018-04-18T17:33:49.427Z,14.50
2018-04-18T17:36:18.696Z,13.37
2018-04-18T17:38:46.953Z,13.73
2018-04-18T17:41:16.208Z,18.60
2018-04-18T17:43:44.707Z,12.20
2018-04-18T17:46:13.167Z,12.33
2018-04-18T17:48:42.452Z,6.97
2018-04-18T17:51:10.903Z,10.23
2018-04-18T17:53:39.383Z,11.33
2018-04-18T17:56:07.872Z,9.17
2018-04-18T17:58:36.385Z,7.60
2018-04-18T18:01:05.713Z,11.57
2018-04-18T18:03:34.187Z,11.67
2018-04-18T18:06:03.419Z,6.93
2018-04-18T18:08:33.311Z,6.40
2018-04-18T18:11:01.801Z,7.30
2018-04-18T18:13:30.295Z,6.50
2018-04-18T18:15:59.744Z,9.27
2018-04-18T18:18:28.287Z,5.20
2018-04-18T18:20:56.772Z,7.37
2018-04-18T18:23:25.257Z,11.00
2018-04-18T18:25:53.807Z,6.83
2018-04-18T18:28:22.326Z,5.80
2018-04-18T18:30:50.832Z,6.93
2018-04-18T18:33:19.310Z,5.53
2018-04-18T18:35:47.623Z,5.97
2018-04-18T18:38:16.657Z,6.13
2018-04-18T18:40:45.178Z,9.20
2018-04-18T18:43:13.659Z,7.47
2018-04-18T18:45:42.144Z,7.27
2018-04-18T18:48:11.427Z,6.47
2018-04-18T18:50:42.400Z,8.63
2018-04-18T18:53:13.718Z,6.93
2018-04-18T18:55:42.202Z,7.70
2018-04-18T18:58:10.712Z,10.57
2018-04-18T19:00:39.968Z,7.13
2018-04-18T19:03:08.663Z,7.80
2018-04-18T19:05:37.369Z,6.97
2018-04-18T19:08:05.850Z,8.83
2018-04-18T19:10:34.108Z,7.17
2018-04-18T19:13:02.615Z,7.40
2018-04-18T19:15:31.611Z,7.23
2018-04-18T19:18:01.665Z,6.70
2018-04-18T19:20:30.288Z,9.10
2018-04-18T19:22:59.074Z,7.60
2018-04-18T19:25:27.630Z,7.20
2018-04-18T19:27:56.456Z,8.97
2018-04-18T19:30:24.955Z,7.50
2018-04-18T19:32:57.664Z,9.53
2018-04-18T19:35:31.906Z,5.93
2018-04-18T19:38:02.429Z,10.80
2018-04-18T19:40:30.944Z,6.67
2018-04-18T19:42:59.182Z,6.13
2018-04-18T19:45:27.853Z,10.97
2018-04-18T19:47:57.119Z,8.33
2018-04-18T19:50:25.607Z,5.17
2018-04-18T19:52:54.127Z,8.93
2018-04-18T19:55:23.418Z,4.93
2018-04-18T19:57:51.886Z,5.27
2018-04-18T20:00:20.163Z,6.57
2018-04-18T20:02:48.838Z,6.80
2018-04-18T20:05:17.130Z,11.40
2018-04-18T20:07:45.633Z,12.10
2018-04-18T20:10:14.407Z,7.40
2018-04-18T20:12:42.874Z,11.63
2018-04-18T20:15:10.697Z,8.37
2018-04-18T20:17:39.177Z,9.27
2018-04-18T20:20:07.693Z,9.80
2018-04-18T20:22:36.207Z,9.70
2018-04-18T20:25:04.414Z,10.00
2018-04-18T20:27:32.907Z,9.73
2018-04-18T20:30:02.099Z,10.93
2018-04-18T20:32:30.725Z,8.90
2018-04-18T20:34:59.887Z,11.10
2018-04-18T20:37:28.369Z,13.10
2018-04-18T20:39:57.042Z,10.23
2018-04-18T20:42:26.285Z,11.00
2018-04-18T20:44:54.758Z,11.33
2018-04-18T20:47:24.016Z,12.97
2018-04-18T20:49:52.695Z,9.80
2018-04-18T20:52:21.969Z,8.30
2018-04-18T20:54:50.487Z,8.57
2018-04-18T20:57:19.110Z,7.97
2018-04-18T20:59:47.624Z,9.27
2018-04-18T21:02:15.775Z,9.33
2018-04-18T21:04:45.601Z,8.20
2018-04-18T21:07:14.085Z,13.90
2018-04-18T21:09:42.557Z,8.70
2018-04-18T21:12:11.049Z,8.23
2018-04-18T21:14:39.560Z,10.00
2018-04-18T21:17:08.036Z,12.10
2018-04-18T21:19:36.555Z,12.43
2018-04-18T21:22:04.725Z,13.83
2018-04-18T21:24:33.977Z,10.50
2018-04-18T21:27:03.548Z,9.32
2018-04-18T21:29:33.299Z,14.23
2018-04-18T21:32:02.076Z,8.35
2018-04-18T21:34:30.836Z,8.90
2018-04-18T21:36:59.309Z,10.40
2018-04-18T21:39:27.945Z,10.47
2018-04-18T21:41:56.430Z,9.93
2018-04-18T21:44:25.373Z,9.73
2018-04-18T21:46:54.807Z,7.57
2018-04-18T21:49:23.316Z,11.13
2018-04-18T21:51:52.092Z,14.52
2018-04-18T21:54:20.558Z,16.23
2018-04-18T21:56:50.072Z,9.95
2018-04-18T21:59:18.554Z,11.70
